Search for airport 
image banner adimage banner adimage banner ad
image banner ad

PS83 - Glaxosmithkline Llc

Located in Upper Merion Township, United States

ICAO - PS83, IATA -

Data provided by Airmate  

General information

Coordinates: N40°4'47" W75°19'43"
Elevation is 200 feet MSL.
Magnetic variation is -11° East
View others Airports in Pennsylvania

Operational data

Special qualification required
Current time UTC:
Current local time:
Weather at : KLOM - Wings Field ( 8 km )
METAR: KLOM 091415Z AUTO 00000KT 10SM OVC110 11/05 A3010 RMK AO2 T01120048
View NOTAMs / SUP AIP / TFR affecting this airport [VIEW]
Communications frequencies: [VIEW]

Runways:

Airport contact information

Address: Upper Merion Township United States

Satellite view of PS83